SPHOSPHY

Guest
Details From SPHO - Coronel Fap Alfredo Mendivil Duarte
To SPHY - Andahuaylas
Flight Number -
Tags Generated
Created
Modified
Stats Distance 60 nm / 111 km
Max Altitude 0 ft / 0 m
Waypoints 2
Social Downloads 1
Likes 0
Share VATSIM

Download

Looking for another format? Having issues loading an existing format? Contact us
Advertisement - Login to hide

Notes

Generated

Route

SPHO SPHY

ID Type Via Altitude Latitude Longitude Leg Dist Tot Dist Heading (true) Name
O SPHO APT - 0 ft / 0 m -13.16653˚ -74.20936˚ - 0 nm - -
O SPHY APT - 0 ft / 0 m -13.71621˚ -73.35659˚ 59 nm 59 nm 124° / 123° -

Altitude Profile

Advertisement - Login to hide

SPHO

Details ICAO SPHO (AYP)
Name CORONEL FAP ALFREDO MENDIVIL DUARTE
Region Peru
Timezone America/Lima (UTC-5.0)
Stats Elevation 8,917 ft / 2,718 m (AMSL)
Location -13.154820° -74.204416°
Runways 1
Magnetic Variation 3.795° W

METAR

SPHO 181500Z 00000KT 9999 SCT030 SCT150 17/11 Q1027 RMK PP000

Decode

TAF

SPHO 181115Z 1812/1912 VRB03KT 9999 SCT040 BKN100 TX28/1819Z TN15/1911Z TEMPO 1818/1822 33010KT FEW040TCU SCT080 BECMG 1823/1902 00000KT SCT030 BKN080

Decode

Departure Runways

ID Width Length Bearing (true) Bearing (mag) Surface Threshold Offset Overrun Length
02 148 ft / 45 m 9,239 ft / 2,816 m 22.35° 26.14° Asphalt 0 ft / 0 m 0 ft / 0 m
20 148 ft / 45 m 9,239 ft / 2,816 m 202.35° 206.14° Asphalt 0 ft / 0 m 100 ft / 30 m

SPHY

Details ICAO SPHY (ANS)
Name ANDAHUAYLAS
Region Peru
Timezone America/Lima (UTC-5.0)
Stats Elevation 11,300 ft / 3,444 m (AMSL)
Location -13.706410° -73.350376°
Runways 1
Magnetic Variation 4.339° W

METAR

SPHY 181500Z /////KT 9999 FEW020 SCT080 12/09 Q1034 RMK BIRD HAZARD RWY03/21 PP000

Decode

TAF

SPHY 181115Z 1812/1912 00000KT 8000 SCT013 BKN070 TX15/1819Z TN02/1911Z TEMPO 1818/1822 36012KT SCT020TCU BKN080 BECMG 1823/1901 00000KT 9999 SCT015 BKN050 TEMPO 1901/1904 8000 RA

Decode

Destination Runways

ID Width Length Bearing (true) Bearing (mag) Surface Threshold Offset Overrun Length
03 98 ft / 30 m 8,397 ft / 2,560 m 31.64° 35.98° Asphalt 0 ft / 0 m 250 ft / 76 m
21 98 ft / 30 m 8,397 ft / 2,560 m 211.64° 215.98° Asphalt 0 ft / 0 m 200 ft / 61 m